This is the latest recevied weather packets stored in our database for station/object K8JCL-13. If no packets are shown the sender has not sent any weather packets the latest 10 day(s).
| Time | Temp. | Humidity | Pressure | Rain* | Wind** | Luminosity | Snow |
|---|---|---|---|---|---|---|---|
| 1777691834 | 6.11° C | 83% | 1018 hPa | 0 mm | - | 0 W/m² | - |
| 1777691532 | 5.56° C | 84% | 1017.9 hPa | 0 mm | - | 0 W/m² | - |
| 1777691231 | 6.11° C | 85% | 1017.9 hPa | 0 mm | - | 0 W/m² | - |
| 1777690928 | 6.11° C | 83% | 1017.7 hPa | 0 mm | - | 0 W/m² | - |
| 1777690625 | 5.56° C | 83% | 1017.6 hPa | 0 mm | - | 0 W/m² | - |
| 1777690323 | 5.56° C | 84% | 1017.9 hPa | 0 mm | - | 0 W/m² | - |
| 1777690020 | 5.56° C | 86% | 1017.8 hPa | 0 mm | - | 0 W/m² | - |
| 1777689718 | 5.56° C | 86% | 1017.9 hPa | 0 mm | - | 0 W/m² | - |
| 1777689416 | 5.56° C | 85% | 1017.8 hPa | 0 mm | - | 0 W/m² | - |
| 1777689113 | 5.56° C | 85% | 1018 hPa | 0 mm | - | 0 W/m² | - |
| 1777688810 | 5.56° C | 84% | 1017.9 hPa | 0 mm | - | 0 W/m² | - |
| 1777688507 | 6.11° C | 83% | 1017.8 hPa | 0 mm | - | 0 W/m² | - |
| 1777673357 | 10.56° C | 62% | 1015.4 hPa | 0 mm | - | 107 W/m² | - |
| 1777673055 | 10.56° C | 64% | 1015.4 hPa | 0 mm | - | 112 W/m² | - |
| 1777670926 | 10.56° C | 66% | 1015.6 hPa | 0 mm | - | 91 W/m² | - |
| 1777670623 | 10.56° C | 69% | 1015.7 hPa | 0 mm | - | 100 W/m² | - |
| 1777669412 | 10° C | 69% | 1015.6 hPa | 0 mm | - | 128 W/m² | - |
| 1777669108 | 10° C | 70% | 1015.3 hPa | 0 mm | - | 153 W/m² | - |
| 1777668805 | 10° C | 72% | 1015.8 hPa | 0 mm | - | 163 W/m² | - |
| 1777668496 | 10° C | 70% | 1015.6 hPa | 0 mm | - | 131 W/m² | - |
| 1777667889 | 10.56° C | 67% | 1015.4 hPa | 0 mm | - | 156 W/m² | - |
| 1777667587 | 10° C | 70% | 1015.5 hPa | 0 mm | - | 150 W/m² | - |
| 1777667284 | 9.44° C | 72% | 1015.5 hPa | 0 mm | - | 120 W/m² | - |
| 1777666980 | 9.44° C | 75% | 1015.7 hPa | 0 mm | - | 71 W/m² | - |
| 1777666070 | 9.44° C | 73% | 1015.6 hPa | 0 mm | - | 112 W/m² | - |
* Rain latest hour (hover to see other rain measurements)
** Current wind speed in m/s (hover to see current wind gust speed)